createdAt,value
2024-04-21T00:00:36.502Z,100210.47
2024-04-21T00:03:06.324Z,100207.09
2024-04-21T00:05:33.294Z,100203.78
2024-04-21T00:08:06.126Z,100210.00
2024-04-21T00:10:33.021Z,100207.66
2024-04-21T00:13:02.975Z,100205.38
2024-04-21T00:15:29.862Z,100204.06
2024-04-21T00:17:59.662Z,100203.09
2024-04-21T00:20:27.016Z,100205.34
2024-04-21T00:22:56.536Z,100195.72
2024-04-21T00:25:26.188Z,100200.63
2024-04-21T00:27:56.083Z,100201.91
2024-04-21T00:30:23.005Z,100202.38
2024-04-21T00:32:52.561Z,100201.97
2024-04-21T00:35:19.504Z,100206.53
2024-04-21T00:37:49.505Z,100200.44
2024-04-21T00:40:17.987Z,100198.47
2024-04-21T00:43:02.551Z,100196.41
2024-04-21T00:45:35.672Z,100194.41
2024-04-21T00:48:09.086Z,100192.81
2024-04-21T00:50:37.510Z,100187.94
2024-04-21T00:53:07.925Z,100189.41
2024-04-21T00:55:35.253Z,100180.50
2024-04-21T00:58:09.041Z,100170.53
2024-04-21T01:00:37.142Z,100175.34
2024-04-21T01:03:07.893Z,100175.94
2024-04-21T01:05:34.978Z,100173.41
2024-04-21T01:08:04.696Z,100173.72
2024-04-21T01:10:31.982Z,100175.72
2024-04-21T01:13:02.035Z,100171.06
2024-04-21T01:15:31.721Z,100171.50
2024-04-21T01:18:01.396Z,100169.31
2024-04-21T01:20:29.633Z,100178.47
2024-04-21T01:23:02.170Z,100181.22
2024-04-21T01:25:29.440Z,100178.63
2024-04-21T01:27:59.166Z,100177.56
2024-04-21T01:30:25.998Z,100172.19
2024-04-21T01:32:55.957Z,100167.66
2024-04-21T01:35:23.242Z,100164.06
2024-04-21T01:37:52.669Z,100167.69
2024-04-21T01:40:22.491Z,100165.66
2024-04-21T01:42:52.469Z,100158.09
2024-04-21T01:45:19.485Z,100159.22
2024-04-21T01:47:49.014Z,100157.25
2024-04-21T01:50:16.374Z,100158.81
2024-04-21T01:52:45.794Z,100152.81
2024-04-21T01:55:14.296Z,100147.34
2024-04-21T01:57:46.964Z,100145.41
2024-04-21T02:00:14.039Z,100149.00
2024-04-21T02:02:43.728Z,100143.75
2024-04-21T02:05:10.988Z,100141.31
2024-04-21T02:07:40.892Z,100138.59
2024-04-21T02:10:08.150Z,100139.75
2024-04-21T02:12:37.911Z,100139.22
2024-04-21T02:15:08.452Z,100139.78
2024-04-21T02:17:38.623Z,100141.50
2024-04-21T02:20:06.437Z,100147.38
2024-04-21T02:22:36.138Z,100146.56
2024-04-21T02:25:03.225Z,100148.19
2024-04-21T02:27:32.811Z,100135.47
2024-04-21T02:29:59.654Z,100140.47
2024-04-21T02:32:31.933Z,100136.00
2024-04-21T02:35:00.412Z,100145.59
2024-04-21T02:37:30.329Z,100146.19
2024-04-21T02:39:57.279Z,100144.34
2024-04-21T02:42:26.929Z,100148.78
2024-04-21T02:44:53.891Z,100147.66
2024-04-21T02:47:23.764Z,100143.50
2024-04-21T02:49:53.593Z,100148.03
2024-04-21T02:52:23.005Z,100132.59
2024-04-21T02:54:50.046Z,100128.97
2024-04-21T02:57:19.590Z,100140.47
2024-04-21T02:59:46.458Z,100133.41
2024-04-21T03:02:16.058Z,100135.28
2024-04-21T03:04:42.906Z,100130.50
2024-04-21T03:07:15.411Z,100131.59
2024-04-21T03:09:43.145Z,100135.03
2024-04-21T03:12:13.100Z,100130.47
2024-04-21T03:14:40.081Z,100132.91
2024-04-21T03:17:09.621Z,100128.00
2024-04-21T03:19:36.446Z,100124.31
2024-04-21T03:22:06.174Z,100124.09
2024-04-21T03:24:37.178Z,100121.88
2024-04-21T03:27:07.121Z,100112.22
2024-04-21T03:29:34.012Z,100115.69
2024-04-21T03:32:03.679Z,100120.28
2024-04-21T03:34:30.521Z,100118.50
2024-04-21T03:37:00.035Z,100119.56
2024-04-21T03:39:31.042Z,100118.81
2024-04-21T03:42:03.325Z,100125.13
2024-04-21T03:44:33.372Z,100109.78
2024-04-21T03:47:00.585Z,100102.84
2024-04-21T03:49:30.406Z,100106.38
2024-04-21T03:51:57.394Z,100102.91
2024-04-21T03:54:27.262Z,100105.53
2024-04-21T03:56:54.041Z,100096.88
2024-04-21T03:59:26.232Z,100104.00
2024-04-21T04:01:53.187Z,100103.69
2024-04-21T04:04:23.178Z,100102.50
2024-04-21T04:06:50.821Z,100097.50
2024-04-21T04:09:20.662Z,100101.69
2024-04-21T04:11:47.512Z,100092.59
2024-04-21T04:14:17.576Z,100109.16
2024-04-21T04:16:47.163Z,100110.25
2024-04-21T04:19:17.275Z,100104.72
2024-04-21T04:21:44.186Z,100113.66
2024-04-21T04:24:13.993Z,100115.25
2024-04-21T04:26:40.795Z,100114.13
2024-04-21T04:29:10.214Z,100108.94
2024-04-21T04:31:37.005Z,100113.09
2024-04-21T04:34:09.442Z,100106.03
2024-04-21T04:36:36.393Z,100107.09
2024-04-21T04:39:06.563Z,100108.13
2024-04-21T04:41:33.447Z,100114.06
2024-04-21T04:44:03.499Z,100119.16
2024-04-21T04:46:30.700Z,100120.63
2024-04-21T04:49:00.457Z,100124.97
2024-04-21T04:51:30.814Z,100124.75
2024-04-21T04:54:00.650Z,100117.19
2024-04-21T04:56:27.706Z,100115.50
2024-04-21T04:58:57.484Z,100121.66
2024-04-21T05:01:24.585Z,100120.25
2024-04-21T05:03:54.444Z,100129.66
2024-04-21T05:06:21.281Z,100116.53
2024-04-21T05:08:53.780Z,100118.91
2024-04-21T05:11:20.700Z,100124.25
2024-04-21T05:13:50.204Z,100121.94
2024-04-21T05:16:17.087Z,100115.50
2024-04-21T05:18:46.655Z,100117.28
2024-04-21T05:21:14.566Z,100125.38
2024-04-21T05:23:44.077Z,100130.56
2024-04-21T05:26:13.524Z,100142.72
2024-04-21T05:28:48.720Z,100135.06
2024-04-21T05:31:17.149Z,100153.41
2024-04-21T05:33:47.020Z,100154.66
2024-04-21T05:36:15.015Z,100156.16
2024-04-21T05:38:44.427Z,100148.25
2024-04-21T05:41:13.951Z,100156.16
2024-04-21T05:43:43.394Z,100146.38
2024-04-21T05:46:10.316Z,100149.03
2024-04-21T05:48:39.769Z,100153.69
2024-04-21T05:51:06.919Z,100148.75
2024-04-21T05:53:36.564Z,100152.66
2024-04-21T05:56:04.418Z,100149.88
2024-04-21T05:58:36.651Z,100155.78
2024-04-21T06:01:04.509Z,100164.38
2024-04-21T06:03:34.274Z,100159.50
2024-04-21T06:06:01.159Z,100167.84
2024-04-21T06:08:30.651Z,100168.94
2024-04-21T06:10:57.604Z,100168.28
2024-04-21T06:13:27.368Z,100173.00
2024-04-21T06:15:57.159Z,100176.31
2024-04-21T06:18:27.153Z,100175.16
2024-04-21T06:20:54.078Z,100185.78
2024-04-21T06:23:23.784Z,100184.56
2024-04-21T06:25:51.279Z,100185.94
2024-04-21T06:28:23.851Z,100194.28
2024-04-21T06:30:50.784Z,100199.94
2024-04-21T06:33:27.626Z,100202.81
2024-04-21T06:35:55.915Z,100196.47
2024-04-21T06:38:25.593Z,100210.16
2024-04-21T06:40:53.837Z,100219.09
2024-04-21T06:43:23.364Z,100209.91
2024-04-21T06:45:54.368Z,100211.91
2024-04-21T06:48:26.927Z,100220.72
2024-04-21T06:50:53.750Z,100226.78
2024-04-21T06:53:23.839Z,100213.06
2024-04-21T06:55:50.725Z,100220.38
2024-04-21T06:58:21.162Z,100219.06
2024-04-21T07:00:48.163Z,100224.03
2024-04-21T07:03:18.583Z,100231.72
2024-04-21T07:05:50.708Z,100231.13
2024-04-21T07:08:20.156Z,100227.16
2024-04-21T07:10:50.639Z,100229.94
2024-04-21T07:13:20.433Z,100233.13
2024-04-21T07:15:47.370Z,100234.34
2024-04-21T07:18:17.162Z,100237.53
2024-04-21T07:20:48.426Z,100235.13
2024-04-21T07:23:17.831Z,100234.69
2024-04-21T07:25:44.772Z,100252.78
2024-04-21T07:28:14.223Z,100247.38
2024-04-21T07:30:42.285Z,100260.06
2024-04-21T07:33:12.283Z,100252.22
2024-04-21T07:35:40.262Z,100257.19
2024-04-21T07:38:12.842Z,100263.81
2024-04-21T07:40:39.715Z,100273.91
2024-04-21T07:43:10.582Z,100277.91
2024-04-21T07:45:37.620Z,100263.53
2024-04-21T07:48:08.025Z,100270.44
2024-04-21T07:50:35.518Z,100259.00
2024-04-21T07:53:05.365Z,100262.69
2024-04-21T07:55:34.926Z,100272.50
2024-04-21T07:58:05.982Z,100278.81
2024-04-21T08:00:32.910Z,100277.63
2024-04-21T08:03:02.758Z,100275.56
2024-04-21T08:05:29.772Z,100290.19
2024-04-21T08:07:59.198Z,100292.28
2024-04-21T08:10:26.353Z,100294.72
2024-04-21T08:12:58.433Z,100309.47
2024-04-21T08:15:25.446Z,100311.94
2024-04-21T08:17:55.111Z,100321.81
2024-04-21T08:20:21.936Z,100328.38
2024-04-21T08:22:51.545Z,100334.34
2024-04-21T08:25:18.394Z,100327.44
2024-04-21T08:27:50.402Z,100325.81
2024-04-21T08:30:19.884Z,100332.00
2024-04-21T08:32:52.256Z,100332.56
2024-04-21T08:35:19.142Z,100345.00
2024-04-21T08:37:48.772Z,100345.63
2024-04-21T08:40:16.166Z,100359.28
2024-04-21T08:42:48.388Z,100350.28
2024-04-21T08:45:21.405Z,100361.31
2024-04-21T08:47:51.436Z,100367.28
2024-04-21T08:50:20.986Z,100362.53
2024-04-21T08:52:51.194Z,100363.88
2024-04-21T08:55:19.924Z,100363.66
2024-04-21T08:57:50.207Z,100361.78
2024-04-21T09:00:21.189Z,100377.25
2024-04-21T09:02:52.260Z,100373.81
2024-04-21T09:05:19.495Z,100377.34
2024-04-21T09:07:49.781Z,100379.84
2024-04-21T09:10:16.658Z,100377.91
2024-04-21T09:12:47.163Z,100397.72
2024-04-21T09:15:13.961Z,100391.94
2024-04-21T09:17:46.411Z,100383.53
2024-04-21T09:20:13.478Z,100390.66
2024-04-21T09:22:43.496Z,100381.22
2024-04-21T09:25:12.104Z,100387.09
2024-04-21T09:27:43.725Z,100390.53
2024-04-21T09:30:11.075Z,100393.50
2024-04-21T09:32:41.177Z,100395.59
2024-04-21T09:35:11.993Z,100392.81
2024-04-21T09:37:47.493Z,100400.47
2024-04-21T09:40:16.019Z,100382.34
2024-04-21T09:42:47.928Z,100402.69
2024-04-21T09:45:16.678Z,100397.34
2024-04-21T09:47:48.129Z,100379.19
2024-04-21T09:50:18.788Z,100382.47
2024-04-21T09:52:52.305Z,100411.06
2024-04-21T09:55:20.427Z,100381.94
2024-04-21T09:58:00.044Z,100391.78
2024-04-21T10:00:31.035Z,100410.25
2024-04-21T10:03:04.394Z,100394.53
2024-04-21T10:05:35.391Z,100401.47
2024-04-21T10:08:06.040Z,100403.47
2024-04-21T10:10:37.266Z,100408.47
2024-04-21T10:13:12.551Z,100396.06
2024-04-21T10:15:39.596Z,100398.22
2024-04-21T10:18:11.567Z,100403.84
2024-04-21T10:20:43.435Z,100407.59
2024-04-21T10:23:13.347Z,100406.44
2024-04-21T10:25:41.870Z,100414.91
2024-04-21T10:28:13.037Z,100398.09
2024-04-21T10:30:40.958Z,100396.53
2024-04-21T10:33:14.208Z,100395.47
2024-04-21T10:35:43.717Z,100408.81
2024-04-21T10:38:15.790Z,100413.19
2024-04-21T10:40:47.185Z,100412.41
2024-04-21T10:43:22.029Z,100413.88
2024-04-21T10:45:49.222Z,100422.31
2024-04-21T10:48:20.341Z,100427.94
2024-04-21T10:50:50.813Z,100441.50
2024-04-21T10:53:20.844Z,100435.19
2024-04-21T10:55:54.762Z,100420.47
2024-04-21T10:58:25.114Z,100420.00
2024-04-21T11:00:52.189Z,100422.22
2024-04-21T11:03:21.761Z,100417.31
2024-04-21T11:06:03.344Z,100431.13
2024-04-21T11:08:34.050Z,100419.47
2024-04-21T11:11:01.722Z,100416.50
2024-04-21T11:13:31.999Z,100421.53
2024-04-21T11:15:59.265Z,100422.59
2024-04-21T11:18:28.908Z,100435.16
2024-04-21T11:20:58.490Z,100421.72
2024-04-21T11:23:28.013Z,100422.06
2024-04-21T11:25:56.449Z,100431.75
2024-04-21T11:28:27.977Z,100425.31
2024-04-21T11:31:05.936Z,100429.16
2024-04-21T11:33:36.872Z,100415.31
2024-04-21T11:36:09.663Z,100426.03
2024-04-21T11:38:40.507Z,100420.16
2024-04-21T11:41:07.561Z,100427.25
2024-04-21T11:43:37.760Z,100429.31
2024-04-21T11:46:05.307Z,100439.41
2024-04-21T11:48:37.538Z,100431.94
2024-04-21T11:51:07.436Z,100431.19
2024-04-21T11:53:37.049Z,100426.22
2024-04-21T11:56:04.585Z,100432.63
2024-04-21T11:58:35.539Z,100423.50
2024-04-21T12:01:03.207Z,100418.44
2024-04-21T12:03:33.383Z,100428.31
2024-04-21T12:06:01.003Z,100420.50
2024-04-21T12:08:33.178Z,100416.44
2024-04-21T12:11:00.367Z,100422.66
2024-04-21T12:13:30.080Z,100409.13
2024-04-21T12:15:56.997Z,100420.41
2024-04-21T12:18:26.635Z,100417.63
2024-04-21T12:20:53.775Z,100415.25
2024-04-21T12:23:23.828Z,100418.38
2024-04-21T12:25:53.236Z,100408.03
2024-04-21T12:28:23.369Z,100421.38
2024-04-21T12:30:50.618Z,100415.75
2024-04-21T12:33:20.180Z,100424.28
2024-04-21T12:35:47.567Z,100422.34
2024-04-21T12:38:17.217Z,100421.53
2024-04-21T12:40:44.203Z,100428.13
2024-04-21T12:43:16.438Z,100440.59
2024-04-21T12:45:43.489Z,100444.31
2024-04-21T12:48:14.903Z,100437.78
2024-04-21T12:50:43.764Z,100424.66
2024-04-21T12:53:14.195Z,100434.50
2024-04-21T12:55:43.657Z,100427.78
2024-04-21T12:58:13.064Z,100415.06
2024-04-21T13:00:43.475Z,100407.75
2024-04-21T13:03:17.591Z,100408.91
2024-04-21T13:05:47.521Z,100403.00
2024-04-21T13:08:16.925Z,100409.28
2024-04-21T13:10:43.910Z,100403.03
2024-04-21T13:13:13.727Z,100402.13
2024-04-21T13:15:43.340Z,100403.34
2024-04-21T13:18:13.129Z,100402.84
2024-04-21T13:20:40.034Z,100409.53
2024-04-21T13:23:09.911Z,100417.69
2024-04-21T13:25:37.045Z,100402.03
2024-04-21T13:28:07.585Z,100422.63
2024-04-21T13:30:36.036Z,100408.47
2024-04-21T13:33:08.738Z,100416.03
2024-04-21T13:35:36.411Z,100414.00
2024-04-21T13:38:07.901Z,100424.19
2024-04-21T13:40:34.745Z,100411.63
2024-04-21T13:43:04.376Z,100404.69
2024-04-21T13:45:31.311Z,100424.53
2024-04-21T13:48:01.074Z,100409.31
2024-04-21T13:50:30.876Z,100419.44
2024-04-21T13:53:01.212Z,100401.59
2024-04-21T13:55:28.142Z,100431.66
2024-04-21T13:57:57.640Z,100440.22
2024-04-21T14:00:25.391Z,100441.66
2024-04-21T14:02:56.285Z,100469.41
2024-04-21T14:05:23.231Z,100493.50
2024-04-21T14:08:03.097Z,100544.91
2024-04-21T14:10:30.196Z,100528.88
2024-04-21T14:13:00.162Z,100491.47
2024-04-21T14:15:27.015Z,100455.13
2024-04-21T14:17:56.813Z,100468.81
2024-04-21T14:20:23.636Z,100461.88
2024-04-21T14:22:55.725Z,100454.41
2024-04-21T14:25:22.649Z,100450.56
2024-04-21T14:27:52.634Z,100437.47
2024-04-21T14:30:19.548Z,100443.63
2024-04-21T14:32:49.009Z,100434.97
2024-04-21T14:35:17.031Z,100438.41
2024-04-21T14:37:46.917Z,100428.16
2024-04-21T14:40:17.015Z,100432.72
2024-04-21T14:42:47.226Z,100441.41
2024-04-21T14:45:14.064Z,100435.72
2024-04-21T14:47:45.674Z,100436.56
2024-04-21T14:50:12.926Z,100430.25
2024-04-21T14:52:46.874Z,100435.28
2024-04-21T14:55:17.678Z,100424.63
2024-04-21T14:57:48.658Z,100429.81
2024-04-21T15:00:16.052Z,100433.78
2024-04-21T15:02:45.547Z,100431.38
2024-04-21T15:05:12.924Z,100436.34
2024-04-21T15:07:42.750Z,100443.13
2024-04-21T15:10:09.882Z,100441.94
2024-04-21T15:12:42.077Z,100437.22
2024-04-21T15:15:10.105Z,100459.59
2024-04-21T15:17:40.013Z,100439.19
2024-04-21T15:20:07.857Z,100438.00
2024-04-21T15:22:39.058Z,100439.03
2024-04-21T15:25:06.602Z,100438.75
2024-04-21T15:27:36.657Z,100452.41
2024-04-21T15:30:10.212Z,100441.31
2024-04-21T15:32:42.101Z,100457.03
2024-04-21T15:35:09.382Z,100456.91
2024-04-21T15:37:39.674Z,100455.78
2024-04-21T15:40:07.303Z,100457.06
2024-04-21T15:42:36.889Z,100449.25
2024-04-21T15:45:08.630Z,100468.13
2024-04-21T15:47:38.705Z,100457.38
2024-04-21T15:50:06.397Z,100458.91
2024-04-21T15:52:36.177Z,100452.63
2024-04-21T15:55:07.279Z,100465.56
2024-04-21T15:57:37.012Z,100458.19
2024-04-21T16:00:05.360Z,100451.25
2024-04-21T16:02:40.283Z,100460.13
2024-04-21T16:05:08.653Z,100470.88
2024-04-21T16:07:38.376Z,100462.63
2024-04-21T16:10:05.945Z,100471.19
2024-04-21T16:12:39.375Z,100459.59
2024-04-21T16:15:08.584Z,100468.34
2024-04-21T16:17:40.817Z,100472.06
2024-04-21T16:20:09.556Z,100469.78
2024-04-21T16:22:39.269Z,100459.34
2024-04-21T16:25:08.578Z,100471.47
2024-04-21T16:27:38.041Z,100483.66
2024-04-21T16:30:06.019Z,100479.56
2024-04-21T16:32:36.012Z,100475.84
2024-04-21T16:35:07.242Z,100471.19
2024-04-21T16:37:37.747Z,100468.13
2024-04-21T16:40:06.413Z,100472.53
2024-04-21T16:42:36.611Z,100480.97
2024-04-21T16:45:04.178Z,100478.00
2024-04-21T16:47:38.136Z,100482.28
2024-04-21T16:50:09.917Z,100477.16
2024-04-21T16:52:39.903Z,100478.81
2024-04-21T16:55:08.173Z,100499.78
2024-04-21T16:57:40.902Z,100484.34
2024-04-21T17:00:09.423Z,100495.44
2024-04-21T17:02:39.831Z,100495.94
2024-04-21T17:05:10.614Z,100499.50
2024-04-21T17:07:42.730Z,100513.03
2024-04-21T17:10:11.322Z,100518.00
2024-04-21T17:12:40.926Z,100510.50
2024-04-21T17:15:08.624Z,100516.22
2024-04-21T17:17:40.309Z,100515.13
2024-04-21T17:20:10.343Z,100516.16
2024-04-21T17:22:39.916Z,100522.66
2024-04-21T17:25:07.276Z,100521.91
2024-04-21T17:27:37.272Z,100554.53
2024-04-21T17:30:05.682Z,100539.09
2024-04-21T17:32:35.885Z,100532.13
2024-04-21T17:35:03.065Z,100529.13
2024-04-21T17:37:35.205Z,100532.50
2024-04-21T17:40:02.382Z,100536.72
2024-04-21T17:42:31.955Z,100529.28
2024-04-21T17:44:58.803Z,100535.44
2024-04-21T17:47:28.358Z,100540.34
2024-04-21T17:49:55.184Z,100544.25
2024-04-21T17:52:26.058Z,100555.22
2024-04-21T17:55:04.019Z,100546.53
2024-04-21T17:57:36.554Z,100554.31
2024-04-21T18:00:04.273Z,100559.59
2024-04-21T18:02:34.055Z,100567.78
2024-04-21T18:05:01.012Z,100581.16
2024-04-21T18:07:32.480Z,100565.16
2024-04-21T18:10:03.764Z,100570.09
2024-04-21T18:12:33.923Z,100564.03
2024-04-21T18:15:01.206Z,100569.94
2024-04-21T18:17:30.732Z,100561.81
2024-04-21T18:19:57.600Z,100575.13
2024-04-21T18:22:28.221Z,100561.00
2024-04-21T18:24:57.359Z,100567.13
2024-04-21T18:27:29.644Z,100577.25
2024-04-21T18:29:58.605Z,100574.75
2024-04-21T18:32:31.242Z,100571.88
2024-04-21T18:34:58.457Z,100578.47
2024-04-21T18:37:27.929Z,100580.13
2024-04-21T18:39:55.051Z,100576.97
2024-04-21T18:42:24.489Z,100576.88
2024-04-21T18:44:55.576Z,100580.41
2024-04-21T18:47:28.829Z,100582.94
2024-04-21T18:49:56.371Z,100589.28
2024-04-21T18:52:26.031Z,100589.25
2024-04-21T18:54:52.969Z,100592.53
2024-04-21T18:57:22.642Z,100600.69
2024-04-21T18:59:49.527Z,100589.94
2024-04-21T19:02:21.549Z,100597.47
2024-04-21T19:04:48.824Z,100596.72
2024-04-21T19:07:19.022Z,100594.44
2024-04-21T19:09:46.553Z,100597.81
2024-04-21T19:12:17.381Z,100600.28
2024-04-21T19:14:44.709Z,100610.28
2024-04-21T19:17:14.902Z,100610.06
2024-04-21T19:19:45.149Z,100615.78
2024-04-21T19:22:15.176Z,100618.16
2024-04-21T19:24:42.100Z,100621.44
2024-04-21T19:27:11.770Z,100620.59
2024-04-21T19:29:38.588Z,100631.59
2024-04-21T19:32:11.291Z,100622.34
2024-04-21T19:34:38.125Z,100619.72
2024-04-21T19:37:10.435Z,100621.47
2024-04-21T19:39:37.265Z,100627.56
2024-04-21T19:42:07.574Z,100629.56
2024-04-21T19:44:34.748Z,100628.03
2024-04-21T19:47:04.741Z,100626.72
2024-04-21T19:49:31.770Z,100629.56
2024-04-21T19:52:01.318Z,100629.47
2024-04-21T19:54:31.735Z,100627.09
2024-04-21T19:57:02.100Z,100637.53
2024-04-21T19:59:28.896Z,100636.06
2024-04-21T20:01:58.455Z,100643.41
2024-04-21T20:04:25.759Z,100634.38
2024-04-21T20:06:55.332Z,100640.59
2024-04-21T20:09:22.209Z,100643.38
2024-04-21T20:11:54.560Z,100646.00
2024-04-21T20:14:23.514Z,100641.38
2024-04-21T20:17:09.472Z,100645.94
2024-04-21T20:19:38.975Z,100645.56
2024-04-21T20:22:08.575Z,100651.88
2024-04-21T20:24:38.128Z,100649.75
2024-04-21T20:27:07.701Z,100652.81
2024-04-21T20:29:37.409Z,100655.38
2024-04-21T20:32:04.824Z,100649.69
2024-04-21T20:34:34.346Z,100653.44
2024-04-21T20:37:01.399Z,100646.19
2024-04-21T20:39:30.925Z,100652.56
2024-04-21T20:41:57.867Z,100655.88
2024-04-21T20:44:29.902Z,100648.59
2024-04-21T20:46:56.797Z,100648.22
2024-04-21T20:49:26.535Z,100659.09
2024-04-21T20:51:53.346Z,100657.16
2024-04-21T20:54:22.964Z,100656.94
2024-04-21T20:56:49.907Z,100663.91
2024-04-21T20:59:19.659Z,100659.63
2024-04-21T21:01:49.448Z,100660.81
2024-04-21T21:04:19.071Z,100656.59
2024-04-21T21:06:45.894Z,100656.13
2024-04-21T21:09:15.338Z,100656.00
2024-04-21T21:11:42.192Z,100657.69
2024-04-21T21:14:11.836Z,100655.94
2024-04-21T21:16:38.747Z,100661.22
2024-04-21T21:19:11.017Z,100657.94
2024-04-21T21:21:37.813Z,100657.38
2024-04-21T21:24:07.836Z,100661.31
2024-04-21T21:26:34.967Z,100663.47
2024-04-21T21:29:04.440Z,100660.47
2024-04-21T21:31:31.564Z,100666.78
2024-04-21T21:34:01.101Z,100667.34
2024-04-21T21:36:30.680Z,100663.91
2024-04-21T21:39:02.521Z,100668.88
2024-04-21T21:41:29.653Z,100663.25
2024-04-21T21:43:59.071Z,100668.97
2024-04-21T21:46:26.089Z,100664.34
2024-04-21T21:48:55.560Z,100664.66
2024-04-21T21:51:22.394Z,100671.00
2024-04-21T21:53:54.481Z,100671.00
2024-04-21T21:56:21.281Z,100666.06
2024-04-21T21:58:50.885Z,100665.84
2024-04-21T22:01:17.814Z,100667.78
2024-04-21T22:03:47.778Z,100662.47
2024-04-21T22:06:14.616Z,100668.94
2024-04-21T22:08:44.150Z,100663.53
2024-04-21T22:11:13.792Z,100668.03
2024-04-21T22:13:43.346Z,100669.78
2024-04-21T22:16:12.147Z,100668.97
2024-04-21T22:18:43.499Z,100664.59
2024-04-21T22:21:10.376Z,100668.16
2024-04-21T22:23:39.774Z,100686.38
2024-04-21T22:26:06.668Z,100685.00
2024-04-21T22:28:38.849Z,100687.72
2024-04-21T22:31:05.894Z,100694.66
2024-04-21T22:33:40.913Z,100687.97
2024-04-21T22:36:08.343Z,100691.78
2024-04-21T22:38:38.642Z,100693.63
2024-04-21T22:41:05.695Z,100691.22
2024-04-21T22:43:38.383Z,100693.22
2024-04-21T22:46:06.524Z,100695.56
2024-04-21T22:48:37.656Z,100699.91
2024-04-21T22:51:05.797Z,100702.69
2024-04-21T22:53:35.397Z,100690.03
2024-04-21T22:56:02.301Z,100689.84
2024-04-21T22:58:32.097Z,100693.03
2024-04-21T23:01:06.702Z,100694.81
2024-04-21T23:03:37.061Z,100697.22
2024-04-21T23:06:04.784Z,100698.84
2024-04-21T23:08:34.276Z,100705.56
2024-04-21T23:11:01.832Z,100702.88
2024-04-21T23:13:31.617Z,100700.56
2024-04-21T23:15:59.454Z,100703.34
2024-04-21T23:18:31.627Z,100694.94
2024-04-21T23:20:58.461Z,100698.53
2024-04-21T23:23:27.960Z,100690.97
2024-04-21T23:25:54.819Z,100697.63
2024-04-21T23:28:24.566Z,100688.63
2024-04-21T23:30:51.427Z,100682.06
2024-04-21T23:33:20.870Z,100682.19
2024-04-21T23:35:50.444Z,100676.72
2024-04-21T23:38:20.332Z,100681.22
2024-04-21T23:40:47.216Z,100675.75
2024-04-21T23:43:16.610Z,100681.94
2024-04-21T23:45:43.874Z,100676.06
2024-04-21T23:48:13.481Z,100678.31
2024-04-21T23:50:40.376Z,100670.63
2024-04-21T23:53:12.473Z,100684.56
2024-04-21T23:55:40.607Z,100675.47
2024-04-21T23:58:10.280Z,100678.34
